sensor_id;sensor_type;location;lat;lon;timestamp;P1;durP1;ratioP1;P2;durP2;ratioP2
16093;SDS011;8151;47.824;12.092;2023-05-13T00:01:08;8.00;;;6.10;;
16093;SDS011;8151;47.824;12.092;2023-05-13T00:03:37;6.67;;;6.03;;
16093;SDS011;8151;47.824;12.092;2023-05-13T00:06:05;6.63;;;5.47;;
16093;SDS011;8151;47.824;12.092;2023-05-13T00:08:35;6.47;;;5.77;;
16093;SDS011;8151;47.824;12.092;2023-05-13T00:11:04;7.07;;;6.13;;
16093;SDS011;8151;47.824;12.092;2023-05-13T00:13:33;6.90;;;5.90;;
16093;SDS011;8151;47.824;12.092;2023-05-13T00:16:01;8.60;;;6.30;;
16093;SDS011;8151;47.824;12.092;2023-05-13T00:18:30;6.63;;;5.93;;
16093;SDS011;8151;47.824;12.092;2023-05-13T00:20:59;7.10;;;6.40;;
16093;SDS011;8151;47.824;12.092;2023-05-13T00:23:29;6.67;;;5.97;;
16093;SDS011;8151;47.824;12.092;2023-05-13T00:25:59;6.90;;;6.20;;
16093;SDS011;8151;47.824;12.092;2023-05-13T00:28:28;6.43;;;5.83;;
16093;SDS011;8151;47.824;12.092;2023-05-13T00:30:56;7.63;;;6.30;;
16093;SDS011;8151;47.824;12.092;2023-05-13T00:33:25;6.90;;;6.20;;
16093;SDS011;8151;47.824;12.092;2023-05-13T00:35:53;7.43;;;6.70;;
16093;SDS011;8151;47.824;12.092;2023-05-13T00:38:22;8.60;;;6.60;;
16093;SDS011;8151;47.824;12.092;2023-05-13T00:40:50;7.37;;;6.43;;
16093;SDS011;8151;47.824;12.092;2023-05-13T00:43:20;6.97;;;6.27;;
16093;SDS011;8151;47.824;12.092;2023-05-13T00:45:48;9.00;;;6.83;;
16093;SDS011;8151;47.824;12.092;2023-05-13T00:48:17;7.20;;;6.50;;
16093;SDS011;8151;47.824;12.092;2023-05-13T00:50:45;15.27;;;6.80;;
16093;SDS011;8151;47.824;12.092;2023-05-13T00:53:15;8.87;;;7.40;;
16093;SDS011;8151;47.824;12.092;2023-05-13T00:55:44;9.30;;;7.20;;
16093;SDS011;8151;47.824;12.092;2023-05-13T00:58:13;7.53;;;6.73;;
16093;SDS011;8151;47.824;12.092;2023-05-13T01:00:46;8.17;;;6.70;;
16093;SDS011;8151;47.824;12.092;2023-05-13T01:03:25;10.27;;;6.90;;
16093;SDS011;8151;47.824;12.092;2023-05-13T01:06:03;7.70;;;6.90;;
16093;SDS011;8151;47.824;12.092;2023-05-13T01:08:40;8.13;;;7.03;;
16093;SDS011;8151;47.824;12.092;2023-05-13T01:11:14;9.10;;;7.77;;
16093;SDS011;8151;47.824;12.092;2023-05-13T01:13:49;9.40;;;7.60;;
16093;SDS011;8151;47.824;12.092;2023-05-13T01:16:26;9.77;;;7.57;;
16093;SDS011;8151;47.824;12.092;2023-05-13T01:18:59;10.93;;;7.50;;
16093;SDS011;8151;47.824;12.092;2023-05-13T01:21:34;9.23;;;7.30;;
16093;SDS011;8151;47.824;12.092;2023-05-13T01:24:05;11.37;;;7.57;;
16093;SDS011;8151;47.824;12.092;2023-05-13T01:26:34;11.43;;;7.80;;
16093;SDS011;8151;47.824;12.092;2023-05-13T01:29:03;10.07;;;7.73;;
16093;SDS011;8151;47.824;12.092;2023-05-13T01:31:41;10.10;;;7.70;;
16093;SDS011;8151;47.824;12.092;2023-05-13T01:34:10;12.77;;;8.27;;
16093;SDS011;8151;47.824;12.092;2023-05-13T01:36:43;9.50;;;7.87;;
16093;SDS011;8151;47.824;12.092;2023-05-13T01:39:11;10.50;;;7.97;;
16093;SDS011;8151;47.824;12.092;2023-05-13T01:41:40;9.97;;;8.53;;
16093;SDS011;8151;47.824;12.092;2023-05-13T01:44:10;11.90;;;7.47;;
16093;SDS011;8151;47.824;12.092;2023-05-13T01:46:38;11.23;;;8.10;;
16093;SDS011;8151;47.824;12.092;2023-05-13T01:49:07;9.20;;;8.30;;
16093;SDS011;8151;47.824;12.092;2023-05-13T01:51:36;10.33;;;7.87;;
16093;SDS011;8151;47.824;12.092;2023-05-13T01:54:07;10.80;;;8.33;;
16093;SDS011;8151;47.824;12.092;2023-05-13T01:56:35;10.73;;;8.40;;
16093;SDS011;8151;47.824;12.092;2023-05-13T01:59:04;10.87;;;8.40;;
16093;SDS011;8151;47.824;12.092;2023-05-13T02:01:32;9.33;;;8.40;;
16093;SDS011;8151;47.824;12.092;2023-05-13T02:04:02;9.07;;;8.17;;
16093;SDS011;8151;47.824;12.092;2023-05-13T02:06:31;11.57;;;8.97;;
16093;SDS011;8151;47.824;12.092;2023-05-13T02:08:59;11.50;;;8.57;;
16093;SDS011;8151;47.824;12.092;2023-05-13T02:11:31;10.47;;;8.80;;
16093;SDS011;8151;47.824;12.092;2023-05-13T02:13:59;9.10;;;7.97;;
16093;SDS011;8151;47.824;12.092;2023-05-13T02:16:29;11.27;;;8.33;;
16093;SDS011;8151;47.824;12.092;2023-05-13T02:18:58;10.23;;;7.87;;
16093;SDS011;8151;47.824;12.092;2023-05-13T02:21:30;8.93;;;8.03;;
16093;SDS011;8151;47.824;12.092;2023-05-13T02:23:59;11.83;;;7.83;;
16093;SDS011;8151;47.824;12.092;2023-05-13T02:26:30;11.00;;;8.27;;
16093;SDS011;8151;47.824;12.092;2023-05-13T02:28:59;9.43;;;8.33;;
16093;SDS011;8151;47.824;12.092;2023-05-13T02:31:28;9.40;;;8.40;;
16093;SDS011;8151;47.824;12.092;2023-05-13T02:33:56;9.20;;;8.30;;
16093;SDS011;8151;47.824;12.092;2023-05-13T02:36:25;12.30;;;8.73;;
16093;SDS011;8151;47.824;12.092;2023-05-13T02:38:53;11.00;;;8.47;;
16093;SDS011;8151;47.824;12.092;2023-05-13T02:41:21;9.80;;;7.90;;
16093;SDS011;8151;47.824;12.092;2023-05-13T02:43:51;11.13;;;9.10;;
16093;SDS011;8151;47.824;12.092;2023-05-13T02:46:20;9.63;;;7.90;;
16093;SDS011;8151;47.824;12.092;2023-05-13T02:48:48;9.63;;;8.63;;
16093;SDS011;8151;47.824;12.092;2023-05-13T02:51:16;10.00;;;9.00;;
16093;SDS011;8151;47.824;12.092;2023-05-13T02:53:45;11.40;;;8.67;;
16093;SDS011;8151;47.824;12.092;2023-05-13T02:56:13;10.73;;;8.93;;
16093;SDS011;8151;47.824;12.092;2023-05-13T02:58:42;11.17;;;9.30;;
16093;SDS011;8151;47.824;12.092;2023-05-13T03:01:14;11.07;;;9.03;;
16093;SDS011;8151;47.824;12.092;2023-05-13T03:03:43;12.27;;;9.80;;
16093;SDS011;8151;47.824;12.092;2023-05-13T03:06:11;10.90;;;8.67;;
16093;SDS011;8151;47.824;12.092;2023-05-13T03:08:39;9.40;;;8.07;;
16093;SDS011;8151;47.824;12.092;2023-05-13T03:11:08;9.50;;;8.43;;
16093;SDS011;8151;47.824;12.092;2023-05-13T03:13:37;9.43;;;8.03;;
16093;SDS011;8151;47.824;12.092;2023-05-13T03:16:06;11.57;;;8.63;;
16093;SDS011;8151;47.824;12.092;2023-05-13T03:18:36;10.30;;;8.63;;
16093;SDS011;8151;47.824;12.092;2023-05-13T03:21:04;11.17;;;8.20;;
16093;SDS011;8151;47.824;12.092;2023-05-13T03:23:33;10.73;;;8.93;;
16093;SDS011;8151;47.824;12.092;2023-05-13T03:26:01;11.20;;;8.67;;
16093;SDS011;8151;47.824;12.092;2023-05-13T03:28:30;11.00;;;8.60;;
16093;SDS011;8151;47.824;12.092;2023-05-13T03:30:59;9.27;;;8.03;;
16093;SDS011;8151;47.824;12.092;2023-05-13T03:33:27;9.80;;;8.27;;
16093;SDS011;8151;47.824;12.092;2023-05-13T03:35:57;9.37;;;7.77;;
16093;SDS011;8151;47.824;12.092;2023-05-13T03:38:25;10.07;;;7.90;;
16093;SDS011;8151;47.824;12.092;2023-05-13T03:40:54;9.77;;;7.83;;
16093;SDS011;8151;47.824;12.092;2023-05-13T03:43:22;9.90;;;8.73;;
16093;SDS011;8151;47.824;12.092;2023-05-13T03:46:00;8.80;;;7.80;;
16093;SDS011;8151;47.824;12.092;2023-05-13T03:48:28;9.87;;;7.63;;
16093;SDS011;8151;47.824;12.092;2023-05-13T03:50:58;10.47;;;8.23;;
16093;SDS011;8151;47.824;12.092;2023-05-13T03:53:27;9.83;;;8.00;;
16093;SDS011;8151;47.824;12.092;2023-05-13T03:55:55;10.23;;;7.70;;
16093;SDS011;8151;47.824;12.092;2023-05-13T03:58:23;9.30;;;7.87;;
16093;SDS011;8151;47.824;12.092;2023-05-13T04:00:52;10.80;;;7.93;;
16093;SDS011;8151;47.824;12.092;2023-05-13T04:03:20;11.43;;;7.93;;
16093;SDS011;8151;47.824;12.092;2023-05-13T04:05:50;10.57;;;8.27;;
16093;SDS011;8151;47.824;12.092;2023-05-13T04:08:20;9.70;;;7.57;;
16093;SDS011;8151;47.824;12.092;2023-05-13T04:10:48;8.93;;;7.60;;
16093;SDS011;8151;47.824;12.092;2023-05-13T04:13:17;11.90;;;8.53;;
16093;SDS011;8151;47.824;12.092;2023-05-13T04:15:45;10.50;;;8.30;;
16093;SDS011;8151;47.824;12.092;2023-05-13T04:18:14;9.80;;;8.57;;
16093;SDS011;8151;47.824;12.092;2023-05-13T04:20:42;13.40;;;8.57;;
16093;SDS011;8151;47.824;12.092;2023-05-13T04:23:10;10.43;;;8.30;;
16093;SDS011;8151;47.824;12.092;2023-05-13T04:25:40;10.87;;;8.60;;
16093;SDS011;8151;47.824;12.092;2023-05-13T04:28:09;10.53;;;8.53;;
16093;SDS011;8151;47.824;12.092;2023-05-13T04:30:37;10.67;;;9.00;;
16093;SDS011;8151;47.824;12.092;2023-05-13T04:33:05;11.40;;;9.20;;
16093;SDS011;8151;47.824;12.092;2023-05-13T04:35:34;11.67;;;8.87;;
16093;SDS011;8151;47.824;12.092;2023-05-13T04:38:03;12.00;;;8.73;;
16093;SDS011;8151;47.824;12.092;2023-05-13T04:40:32;10.67;;;8.40;;
16093;SDS011;8151;47.824;12.092;2023-05-13T04:43:02;11.00;;;9.00;;
16093;SDS011;8151;47.824;12.092;2023-05-13T04:45:31;11.43;;;8.73;;
16093;SDS011;8151;47.824;12.092;2023-05-13T04:48:00;15.70;;;10.33;;
16093;SDS011;8151;47.824;12.092;2023-05-13T04:50:28;15.23;;;9.80;;
16093;SDS011;8151;47.824;12.092;2023-05-13T04:52:58;16.23;;;11.17;;
16093;SDS011;8151;47.824;12.092;2023-05-13T04:55:26;13.77;;;10.23;;
16093;SDS011;8151;47.824;12.092;2023-05-13T04:57:59;15.70;;;10.57;;
16093;SDS011;8151;47.824;12.092;2023-05-13T05:00:30;15.07;;;10.70;;
16093;SDS011;8151;47.824;12.092;2023-05-13T05:02:59;16.30;;;11.00;;
16093;SDS011;8151;47.824;12.092;2023-05-13T05:05:27;11.90;;;9.53;;
16093;SDS011;8151;47.824;12.092;2023-05-13T05:07:56;14.43;;;10.07;;
16093;SDS011;8151;47.824;12.092;2023-05-13T05:10:24;11.93;;;9.80;;
16093;SDS011;8151;47.824;12.092;2023-05-13T05:12:53;13.13;;;9.63;;
16093;SDS011;8151;47.824;12.092;2023-05-13T05:15:23;13.13;;;9.63;;
16093;SDS011;8151;47.824;12.092;2023-05-13T05:17:51;12.67;;;9.77;;
16093;SDS011;8151;47.824;12.092;2023-05-13T05:20:20;16.67;;;10.90;;
16093;SDS011;8151;47.824;12.092;2023-05-13T05:22:50;12.83;;;9.93;;
16093;SDS011;8151;47.824;12.092;2023-05-13T05:25:18;14.63;;;9.97;;
16093;SDS011;8151;47.824;12.092;2023-05-13T05:27:46;15.80;;;10.07;;
16093;SDS011;8151;47.824;12.092;2023-05-13T05:30:15;15.27;;;10.07;;
16093;SDS011;8151;47.824;12.092;2023-05-13T05:32:45;13.80;;;9.33;;
16093;SDS011;8151;47.824;12.092;2023-05-13T05:35:13;15.20;;;9.07;;
16093;SDS011;8151;47.824;12.092;2023-05-13T05:37:45;12.20;;;9.43;;
16093;SDS011;8151;47.824;12.092;2023-05-13T05:40:13;14.27;;;9.60;;
16093;SDS011;8151;47.824;12.092;2023-05-13T05:42:42;12.63;;;9.23;;
16093;SDS011;8151;47.824;12.092;2023-05-13T05:45:10;12.20;;;9.70;;
16093;SDS011;8151;47.824;12.092;2023-05-13T05:47:39;18.47;;;11.60;;
16093;SDS011;8151;47.824;12.092;2023-05-13T05:50:09;12.90;;;9.73;;
16093;SDS011;8151;47.824;12.092;2023-05-13T05:52:37;12.57;;;9.63;;
16093;SDS011;8151;47.824;12.092;2023-05-13T05:55:06;11.97;;;9.07;;
16093;SDS011;8151;47.824;12.092;2023-05-13T05:57:35;12.43;;;8.50;;
16093;SDS011;8151;47.824;12.092;2023-05-13T06:00:05;18.00;;;9.77;;
16093;SDS011;8151;47.824;12.092;2023-05-13T06:02:35;14.93;;;9.10;;
16093;SDS011;8151;47.824;12.092;2023-05-13T06:05:04;11.77;;;8.60;;
16093;SDS011;8151;47.824;12.092;2023-05-13T06:07:35;13.60;;;9.33;;
16093;SDS011;8151;47.824;12.092;2023-05-13T06:10:05;14.80;;;9.70;;
16093;SDS011;8151;47.824;12.092;2023-05-13T06:12:34;10.70;;;8.30;;
16093;SDS011;8151;47.824;12.092;2023-05-13T06:15:03;13.00;;;10.00;;
16093;SDS011;8151;47.824;12.092;2023-05-13T06:17:36;11.63;;;9.20;;
16093;SDS011;8151;47.824;12.092;2023-05-13T06:20:05;13.37;;;9.43;;
16093;SDS011;8151;47.824;12.092;2023-05-13T06:22:36;11.90;;;9.80;;
16093;SDS011;8151;47.824;12.092;2023-05-13T06:25:05;11.53;;;9.20;;
16093;SDS011;8151;47.824;12.092;2023-05-13T06:27:34;10.33;;;8.83;;
16093;SDS011;8151;47.824;12.092;2023-05-13T06:30:04;10.40;;;7.87;;
16093;SDS011;8151;47.824;12.092;2023-05-13T06:32:33;10.47;;;7.83;;
16093;SDS011;8151;47.824;12.092;2023-05-13T06:35:02;10.13;;;7.67;;
16093;SDS011;8151;47.824;12.092;2023-05-13T06:37:33;10.07;;;8.07;;
16093;SDS011;8151;47.824;12.092;2023-05-13T06:40:04;16.60;;;7.80;;
16093;SDS011;8151;47.824;12.092;2023-05-13T06:42:33;10.13;;;7.73;;
16093;SDS011;8151;47.824;12.092;2023-05-13T06:45:06;11.77;;;7.80;;
16093;SDS011;8151;47.824;12.092;2023-05-13T06:47:39;9.70;;;7.60;;
16093;SDS011;8151;47.824;12.092;2023-05-13T06:50:07;9.57;;;7.33;;
16093;SDS011;8151;47.824;12.092;2023-05-13T06:52:38;9.77;;;7.07;;
16093;SDS011;8151;47.824;12.092;2023-05-13T06:55:08;19.47;;;8.60;;
16093;SDS011;8151;47.824;12.092;2023-05-13T06:57:37;9.83;;;6.90;;
16093;SDS011;8151;47.824;12.092;2023-05-13T07:00:09;8.67;;;7.00;;
16093;SDS011;8151;47.824;12.092;2023-05-13T07:02:38;10.10;;;6.70;;
16093;SDS011;8151;47.824;12.092;2023-05-13T07:05:07;8.33;;;6.63;;
16093;SDS011;8151;47.824;12.092;2023-05-13T07:07:38;8.27;;;6.17;;
16093;SDS011;8151;47.824;12.092;2023-05-13T07:10:08;12.97;;;6.87;;
16093;SDS011;8151;47.824;12.092;2023-05-13T07:12:40;8.77;;;6.60;;
16093;SDS011;8151;47.824;12.092;2023-05-13T07:15:09;9.20;;;7.77;;
16093;SDS011;8151;47.824;12.092;2023-05-13T07:17:38;8.50;;;7.07;;
16093;SDS011;8151;47.824;12.092;2023-05-13T07:20:07;10.43;;;7.33;;
16093;SDS011;8151;47.824;12.092;2023-05-13T07:22:36;11.23;;;8.70;;
16093;SDS011;8151;47.824;12.092;2023-05-13T07:25:08;8.63;;;6.63;;
16093;SDS011;8151;47.824;12.092;2023-05-13T07:27:37;9.33;;;6.43;;
16093;SDS011;8151;47.824;12.092;2023-05-13T07:30:06;6.17;;;5.03;;
16093;SDS011;8151;47.824;12.092;2023-05-13T07:32:35;6.47;;;5.30;;
16093;SDS011;8151;47.824;12.092;2023-05-13T07:35:04;6.17;;;5.40;;
16093;SDS011;8151;47.824;12.092;2023-05-13T07:37:40;8.13;;;5.30;;
16093;SDS011;8151;47.824;12.092;2023-05-13T07:40:10;7.30;;;6.27;;
16093;SDS011;8151;47.824;12.092;2023-05-13T07:42:39;7.37;;;5.63;;
16093;SDS011;8151;47.824;12.092;2023-05-13T07:45:08;8.17;;;6.63;;
16093;SDS011;8151;47.824;12.092;2023-05-13T07:47:37;8.53;;;6.77;;
16093;SDS011;8151;47.824;12.092;2023-05-13T07:50:10;7.80;;;6.20;;
16093;SDS011;8151;47.824;12.092;2023-05-13T07:52:43;7.30;;;6.07;;
16093;SDS011;8151;47.824;12.092;2023-05-13T07:55:16;6.70;;;5.90;;
16093;SDS011;8151;47.824;12.092;2023-05-13T07:57:44;6.50;;;5.33;;
16093;SDS011;8151;47.824;12.092;2023-05-13T08:00:13;7.00;;;5.97;;
16093;SDS011;8151;47.824;12.092;2023-05-13T08:02:48;6.50;;;5.63;;
16093;SDS011;8151;47.824;12.092;2023-05-13T08:05:17;7.50;;;5.73;;
16093;SDS011;8151;47.824;12.092;2023-05-13T08:07:46;7.03;;;5.50;;
16093;SDS011;8151;47.824;12.092;2023-05-13T08:10:16;6.93;;;5.30;;
16093;SDS011;8151;47.824;12.092;2023-05-13T08:12:44;6.60;;;5.53;;
16093;SDS011;8151;47.824;12.092;2023-05-13T08:15:17;5.90;;;5.30;;
16093;SDS011;8151;47.824;12.092;2023-05-13T08:17:47;6.17;;;5.10;;
16093;SDS011;8151;47.824;12.092;2023-05-13T08:20:16;5.23;;;4.70;;
16093;SDS011;8151;47.824;12.092;2023-05-13T08:22:44;6.60;;;5.00;;
16093;SDS011;8151;47.824;12.092;2023-05-13T08:25:13;6.10;;;4.80;;
16093;SDS011;8151;47.824;12.092;2023-05-13T08:27:50;6.87;;;4.43;;
16093;SDS011;8151;47.824;12.092;2023-05-13T08:30:18;9.80;;;8.07;;
16093;SDS011;8151;47.824;12.092;2023-05-13T08:32:46;11.00;;;8.07;;
16093;SDS011;8151;47.824;12.092;2023-05-13T08:35:15;5.77;;;5.17;;
16093;SDS011;8151;47.824;12.092;2023-05-13T08:37:43;12.83;;;9.30;;
16093;SDS011;8151;47.824;12.092;2023-05-13T08:40:12;7.80;;;6.47;;
16093;SDS011;8151;47.824;12.092;2023-05-13T08:42:41;7.30;;;4.90;;
16093;SDS011;8151;47.824;12.092;2023-05-13T08:45:13;5.17;;;4.20;;
16093;SDS011;8151;47.824;12.092;2023-05-13T08:47:47;11.97;;;6.87;;
16093;SDS011;8151;47.824;12.092;2023-05-13T08:50:18;13.07;;;8.30;;
16093;SDS011;8151;47.824;12.092;2023-05-13T08:52:49;5.70;;;5.07;;
16093;SDS011;8151;47.824;12.092;2023-05-13T08:55:19;5.80;;;5.03;;
16093;SDS011;8151;47.824;12.092;2023-05-13T08:57:50;9.87;;;7.40;;
16093;SDS011;8151;47.824;12.092;2023-05-13T09:00:20;9.40;;;7.63;;
16093;SDS011;8151;47.824;12.092;2023-05-13T09:02:48;4.47;;;3.90;;
16093;SDS011;8151;47.824;12.092;2023-05-13T09:05:17;4.43;;;4.03;;
16093;SDS011;8151;47.824;12.092;2023-05-13T09:07:48;4.80;;;4.30;;
16093;SDS011;8151;47.824;12.092;2023-05-13T09:10:17;5.90;;;5.33;;
16093;SDS011;8151;47.824;12.092;2023-05-13T09:12:48;9.20;;;5.57;;
16093;SDS011;8151;47.824;12.092;2023-05-13T09:15:18;9.73;;;7.63;;
16093;SDS011;8151;47.824;12.092;2023-05-13T09:17:50;5.83;;;5.27;;
16093;SDS011;8151;47.824;12.092;2023-05-13T09:20:21;5.67;;;4.53;;
16093;SDS011;8151;47.824;12.092;2023-05-13T09:22:52;6.03;;;4.73;;
16093;SDS011;8151;47.824;12.092;2023-05-13T09:25:21;5.73;;;4.33;;
16093;SDS011;8151;47.824;12.092;2023-05-13T09:27:51;4.30;;;3.80;;
16093;SDS011;8151;47.824;12.092;2023-05-13T09:30:24;5.30;;;4.73;;
16093;SDS011;8151;47.824;12.092;2023-05-13T09:33:03;4.93;;;4.43;;
16093;SDS011;8151;47.824;12.092;2023-05-13T09:35:35;6.83;;;5.50;;
16093;SDS011;8151;47.824;12.092;2023-05-13T09:38:11;4.50;;;4.10;;
16093;SDS011;8151;47.824;12.092;2023-05-13T09:40:48;6.47;;;5.10;;
16093;SDS011;8151;47.824;12.092;2023-05-13T09:43:22;5.43;;;4.23;;
16093;SDS011;8151;47.824;12.092;2023-05-13T09:45:53;4.27;;;3.87;;
16093;SDS011;8151;47.824;12.092;2023-05-13T09:48:24;6.20;;;5.60;;
16093;SDS011;8151;47.824;12.092;2023-05-13T09:50:54;5.77;;;4.13;;
16093;SDS011;8151;47.824;12.092;2023-05-13T09:53:24;4.60;;;4.17;;
16093;SDS011;8151;47.824;12.092;2023-05-13T09:55:53;4.97;;;4.40;;
16093;SDS011;8151;47.824;12.092;2023-05-13T09:58:23;7.83;;;3.80;;
16093;SDS011;8151;47.824;12.092;2023-05-13T10:00:55;6.17;;;4.87;;
16093;SDS011;8151;47.824;12.092;2023-05-13T10:03:24;5.70;;;5.03;;
16093;SDS011;8151;47.824;12.092;2023-05-13T10:05:54;5.93;;;4.63;;
16093;SDS011;8151;47.824;12.092;2023-05-13T10:08:29;4.53;;;3.97;;
16093;SDS011;8151;47.824;12.092;2023-05-13T10:10:58;5.93;;;4.37;;
16093;SDS011;8151;47.824;12.092;2023-05-13T10:13:26;7.27;;;6.57;;
16093;SDS011;8151;47.824;12.092;2023-05-13T10:16:00;3.80;;;3.50;;
16093;SDS011;8151;47.824;12.092;2023-05-13T10:18:28;3.70;;;3.40;;
16093;SDS011;8151;47.824;12.092;2023-05-13T10:20:58;4.33;;;3.93;;
16093;SDS011;8151;47.824;12.092;2023-05-13T10:23:31;3.50;;;3.20;;
16093;SDS011;8151;47.824;12.092;2023-05-13T10:26:00;3.73;;;3.43;;
16093;SDS011;8151;47.824;12.092;2023-05-13T10:28:30;3.53;;;3.13;;
16093;SDS011;8151;47.824;12.092;2023-05-13T10:31:00;3.03;;;2.83;;
16093;SDS011;8151;47.824;12.092;2023-05-13T10:33:29;4.80;;;3.73;;
16093;SDS011;8151;47.824;12.092;2023-05-13T10:36:00;6.33;;;4.40;;
16093;SDS011;8151;47.824;12.092;2023-05-13T10:38:44;3.90;;;3.50;;
16093;SDS011;8151;47.824;12.092;2023-05-13T10:41:34;3.40;;;3.10;;
16093;SDS011;8151;47.824;12.092;2023-05-13T10:44:27;3.23;;;2.97;;
16093;SDS011;8151;47.824;12.092;2023-05-13T10:46:57;3.60;;;3.30;;
16093;SDS011;8151;47.824;12.092;2023-05-13T10:49:31;3.60;;;3.30;;
16093;SDS011;8151;47.824;12.092;2023-05-13T10:52:03;3.57;;;3.03;;
16093;SDS011;8151;47.824;12.092;2023-05-13T10:54:35;2.63;;;2.43;;
16093;SDS011;8151;47.824;12.092;2023-05-13T10:57:05;3.13;;;2.83;;
16093;SDS011;8151;47.824;12.092;2023-05-13T10:59:35;3.20;;;2.90;;
16093;SDS011;8151;47.824;12.092;2023-05-13T11:04:59;3.87;;;3.50;;
16093;SDS011;8151;47.824;12.092;2023-05-13T11:07:28;4.30;;;3.90;;
16093;SDS011;8151;47.824;12.092;2023-05-13T11:09:57;4.63;;;3.60;;
16093;SDS011;8151;47.824;12.092;2023-05-13T11:12:26;3.73;;;3.43;;
16093;SDS011;8151;47.824;12.092;2023-05-13T11:14:55;4.03;;;3.63;;
16093;SDS011;8151;47.824;12.092;2023-05-13T11:17:25;6.63;;;5.23;;
16093;SDS011;8151;47.824;12.092;2023-05-13T11:19:53;4.30;;;3.90;;
16093;SDS011;8151;47.824;12.092;2023-05-13T11:22:23;3.97;;;3.53;;
16093;SDS011;8151;47.824;12.092;2023-05-13T11:25:02;6.70;;;6.00;;
16093;SDS011;8151;47.824;12.092;2023-05-13T11:27:36;8.47;;;7.30;;
16093;SDS011;8151;47.824;12.092;2023-05-13T11:30:06;4.47;;;3.70;;
16093;SDS011;8151;47.824;12.092;2023-05-13T11:32:53;3.73;;;3.30;;
16093;SDS011;8151;47.824;12.092;2023-05-13T11:35:24;3.40;;;3.10;;
16093;SDS011;8151;47.824;12.092;2023-05-13T11:37:53;3.73;;;3.43;;
16093;SDS011;8151;47.824;12.092;2023-05-13T11:40:27;4.03;;;3.60;;
16093;SDS011;8151;47.824;12.092;2023-05-13T11:42:57;3.60;;;3.30;;
16093;SDS011;8151;47.824;12.092;2023-05-13T11:45:27;3.67;;;3.37;;
16093;SDS011;8151;47.824;12.092;2023-05-13T11:48:00;6.23;;;3.67;;
16093;SDS011;8151;47.824;12.092;2023-05-13T11:50:45;4.03;;;3.60;;
16093;SDS011;8151;47.824;12.092;2023-05-13T11:53:17;3.50;;;3.20;;
16093;SDS011;8151;47.824;12.092;2023-05-13T11:55:48;4.00;;;3.60;;
16093;SDS011;8151;47.824;12.092;2023-05-13T11:58:19;5.87;;;4.67;;
16093;SDS011;8151;47.824;12.092;2023-05-13T12:00:48;7.63;;;5.30;;
16093;SDS011;8151;47.824;12.092;2023-05-13T12:03:19;7.30;;;5.20;;
16093;SDS011;8151;47.824;12.092;2023-05-13T12:05:47;6.03;;;4.77;;
16093;SDS011;8151;47.824;12.092;2023-05-13T12:08:17;8.33;;;4.27;;
16093;SDS011;8151;47.824;12.092;2023-05-13T12:10:47;4.40;;;4.00;;
16093;SDS011;8151;47.824;12.092;2023-05-13T12:13:16;4.40;;;4.00;;
16093;SDS011;8151;47.824;12.092;2023-05-13T12:15:45;5.13;;;4.50;;
16093;SDS011;8151;47.824;12.092;2023-05-13T12:18:14;4.83;;;4.30;;
16093;SDS011;8151;47.824;12.092;2023-05-13T12:20:44;4.53;;;4.13;;
16093;SDS011;8151;47.824;12.092;2023-05-13T12:23:13;5.40;;;4.90;;
16093;SDS011;8151;47.824;12.092;2023-05-13T12:25:42;4.90;;;4.40;;
16093;SDS011;8151;47.824;12.092;2023-05-13T12:28:13;4.50;;;4.03;;
16093;SDS011;8151;47.824;12.092;2023-05-13T12:30:49;4.13;;;3.73;;
16093;SDS011;8151;47.824;12.092;2023-05-13T12:33:19;5.80;;;4.63;;
16093;SDS011;8151;47.824;12.092;2023-05-13T12:35:51;5.30;;;4.67;;
16093;SDS011;8151;47.824;12.092;2023-05-13T12:38:21;3.77;;;3.47;;
16093;SDS011;8151;47.824;12.092;2023-05-13T12:40:52;5.40;;;3.90;;
16093;SDS011;8151;47.824;12.092;2023-05-13T12:43:21;6.00;;;4.20;;
16093;SDS011;8151;47.824;12.092;2023-05-13T12:45:51;4.33;;;3.93;;
16093;SDS011;8151;47.824;12.092;2023-05-13T12:48:23;4.07;;;3.73;;
16093;SDS011;8151;47.824;12.092;2023-05-13T12:50:54;4.30;;;3.63;;
16093;SDS011;8151;47.824;12.092;2023-05-13T12:53:25;3.60;;;3.27;;
16093;SDS011;8151;47.824;12.092;2023-05-13T12:55:54;3.73;;;3.43;;
16093;SDS011;8151;47.824;12.092;2023-05-13T12:58:22;3.27;;;2.97;;
16093;SDS011;8151;47.824;12.092;2023-05-13T13:00:51;2.90;;;2.70;;
16093;SDS011;8151;47.824;12.092;2023-05-13T13:03:19;4.37;;;3.27;;
16093;SDS011;8151;47.824;12.092;2023-05-13T13:05:54;4.10;;;3.70;;
16093;SDS011;8151;47.824;12.092;2023-05-13T13:08:23;4.50;;;4.10;;
16093;SDS011;8151;47.824;12.092;2023-05-13T13:10:57;4.40;;;4.00;;
16093;SDS011;8151;47.824;12.092;2023-05-13T13:13:26;4.23;;;3.83;;
16093;SDS011;8151;47.824;12.092;2023-05-13T13:15:54;3.90;;;3.40;;
16093;SDS011;8151;47.824;12.092;2023-05-13T13:18:23;4.43;;;3.70;;
16093;SDS011;8151;47.824;12.092;2023-05-13T13:20:52;3.10;;;2.90;;
16093;SDS011;8151;47.824;12.092;2023-05-13T13:23:23;3.60;;;3.30;;
16093;SDS011;8151;47.824;12.092;2023-05-13T13:25:52;6.53;;;3.70;;
16093;SDS011;8151;47.824;12.092;2023-05-13T13:28:22;3.63;;;3.33;;
16093;SDS011;8151;47.824;12.092;2023-05-13T13:30:50;5.20;;;3.97;;
16093;SDS011;8151;47.824;12.092;2023-05-13T13:33:19;3.50;;;3.20;;
16093;SDS011;8151;47.824;12.092;2023-05-13T13:35:48;3.20;;;3.00;;
16093;SDS011;8151;47.824;12.092;2023-05-13T13:38:17;3.90;;;3.50;;
16093;SDS011;8151;47.824;12.092;2023-05-13T13:40:46;3.87;;;3.53;;
16093;SDS011;8151;47.824;12.092;2023-05-13T13:43:15;3.80;;;3.50;;
16093;SDS011;8151;47.824;12.092;2023-05-13T13:45:43;3.00;;;2.80;;
16093;SDS011;8151;47.824;12.092;2023-05-13T13:48:12;5.20;;;4.73;;
16093;SDS011;8151;47.824;12.092;2023-05-13T13:50:41;11.60;;;8.63;;
16093;SDS011;8151;47.824;12.092;2023-05-13T13:53:13;4.07;;;3.77;;
16093;SDS011;8151;47.824;12.092;2023-05-13T13:55:41;2.90;;;2.70;;
16093;SDS011;8151;47.824;12.092;2023-05-13T13:58:20;3.27;;;2.77;;
16093;SDS011;8151;47.824;12.092;2023-05-13T14:00:49;4.30;;;3.57;;
16093;SDS011;8151;47.824;12.092;2023-05-13T14:03:18;6.13;;;5.53;;
16093;SDS011;8151;47.824;12.092;2023-05-13T14:05:47;2.47;;;2.27;;
16093;SDS011;8151;47.824;12.092;2023-05-13T14:08:15;2.53;;;2.37;;
16093;SDS011;8151;47.824;12.092;2023-05-13T14:10:49;2.40;;;2.20;;
16093;SDS011;8151;47.824;12.092;2023-05-13T14:13:18;2.30;;;2.20;;
16093;SDS011;8151;47.824;12.092;2023-05-13T14:15:48;2.60;;;2.40;;
16093;SDS011;8151;47.824;12.092;2023-05-13T14:18:17;2.93;;;2.40;;
16093;SDS011;8151;47.824;12.092;2023-05-13T14:20:45;2.53;;;2.37;;
16093;SDS011;8151;47.824;12.092;2023-05-13T14:23:16;3.30;;;3.00;;
16093;SDS011;8151;47.824;12.092;2023-05-13T14:25:44;5.97;;;3.00;;
16093;SDS011;8151;47.824;12.092;2023-05-13T14:28:13;4.87;;;3.73;;
16093;SDS011;8151;47.824;12.092;2023-05-13T14:30:43;6.40;;;5.37;;
16093;SDS011;8151;47.824;12.092;2023-05-13T14:33:13;6.47;;;4.70;;
16093;SDS011;8151;47.824;12.092;2023-05-13T14:35:42;3.20;;;2.90;;
16093;SDS011;8151;47.824;12.092;2023-05-13T14:38:12;3.20;;;2.90;;
16093;SDS011;8151;47.824;12.092;2023-05-13T14:40:40;4.57;;;3.60;;
16093;SDS011;8151;47.824;12.092;2023-05-13T14:43:08;3.13;;;2.90;;
16093;SDS011;8151;47.824;12.092;2023-05-13T14:45:38;2.90;;;2.70;;
16093;SDS011;8151;47.824;12.092;2023-05-13T14:48:06;4.10;;;3.70;;
16093;SDS011;8151;47.824;12.092;2023-05-13T14:50:36;4.70;;;4.20;;
16093;SDS011;8151;47.824;12.092;2023-05-13T14:53:07;4.27;;;3.90;;
16093;SDS011;8151;47.824;12.092;2023-05-13T14:55:36;5.20;;;4.70;;
16093;SDS011;8151;47.824;12.092;2023-05-13T14:58:04;13.37;;;10.20;;
16093;SDS011;8151;47.824;12.092;2023-05-13T15:00:34;13.27;;;9.10;;
16093;SDS011;8151;47.824;12.092;2023-05-13T15:03:04;7.17;;;6.47;;